Time;durP1;ratioP1;P1;durP2;ratioP2;P2;SDS_P1;SDS_P2;PMS_P1;PMS_P2;Temp;Humidity;BMP_temperature;BMP_pressure;BME280_temperature;BME280_humidity;BME280_pressure;Samples;Min_cycle;Max_cycle;Signal;HPM_P1;HPM_P2
2024/04/16 00:00:40;;;;;;;3.28;2.15;;;6.60;1.00;;;;;;5350580;26;20270;-72
2024/04/16 00:03:06;;;;;;;3.53;2.10;;;6.60;1.00;;;;;;5350577;26;20274;-71
2024/04/16 00:05:35;;;;;;;3.83;2.10;;;6.60;1.00;;;;;;5349913;26;20480;-72
2024/04/16 00:08:01;;;;;;;2.38;2.15;;;6.60;1.00;;;;;;5321815;26;20266;-71
2024/04/16 00:10:30;;;;;;;4.32;2.30;;;6.60;1.00;;;;;;5346209;26;20256;-70
2024/04/16 00:12:59;;;;;;;2.60;2.38;;;6.60;1.00;;;;;;5350092;26;20304;-71
2024/04/16 00:15:27;;;;;;;4.13;2.50;;;6.60;1.00;;;;;;5352093;26;20291;-75
2024/04/16 00:17:53;;;;;;;4.15;2.42;;;6.60;1.00;;;;;;5347450;26;20643;-72
2024/04/16 00:20:22;;;;;;;5.30;2.70;;;6.70;1.00;;;;;;5329187;26;20292;-71
2024/04/16 00:22:48;;;;;;;3.05;2.75;;;6.70;1.00;;;;;;5341336;26;20544;-72
2024/04/16 00:25:17;;;;;;;3.97;3.67;;;6.70;1.00;;;;;;5349179;26;20658;-71
2024/04/16 00:27:43;;;;;;;4.95;3.15;;;6.70;1.00;;;;;;5335097;26;20493;-71
2024/04/16 00:30:14;;;;;;;4.20;2.90;;;6.80;1.00;;;;;;5344655;25;20260;-71
2024/04/16 00:32:40;;;;;;;7.35;3.63;;;6.80;1.00;;;;;;5351366;26;20793;-71
2024/04/16 00:35:09;;;;;;;4.60;3.30;;;6.80;1.00;;;;;;5353452;26;20286;-71
2024/04/16 00:37:35;;;;;;;4.85;3.65;;;6.90;1.00;;;;;;5348931;26;20491;-70
2024/04/16 00:40:03;;;;;;;4.57;3.80;;;6.90;1.00;;;;;;5351464;25;20270;-72
2024/04/16 00:42:29;;;;;;;3.87;3.33;;;6.90;1.00;;;;;;5350406;25;20946;-71
2024/04/16 00:44:58;;;;;;;4.30;3.60;;;6.90;1.00;;;;;;5352172;26;20546;-71
2024/04/16 00:47:26;;;;;;;4.00;3.60;;;7.00;1.00;;;;;;5352370;26;20545;-72
2024/04/16 00:49:55;;;;;;;4.80;4.30;;;7.00;1.00;;;;;;5346395;26;20591;-72
2024/04/16 00:52:21;;;;;;;5.13;3.97;;;7.00;1.00;;;;;;5351917;26;20308;-71
2024/04/16 00:54:50;;;;;;;4.95;4.45;;;7.00;1.00;;;;;;5349941;26;20357;-71
2024/04/16 00:57:16;;;;;;;4.83;4.00;;;7.00;1.00;;;;;;5346832;26;20291;-70
2024/04/16 00:59:49;;;;;;;5.85;4.60;;;7.00;1.00;;;;;;5328627;26;20496;-70
2024/04/16 01:02:15;;;;;;;5.30;4.80;;;7.00;1.00;;;;;;5314383;26;20279;-70
2024/04/16 01:04:46;;;;;;;4.67;4.00;;;7.00;1.00;;;;;;5317784;26;20747;-70
2024/04/16 01:07:12;;;;;;;5.10;4.10;;;7.10;1.00;;;;;;5342356;26;20540;-73
2024/04/16 01:09:41;;;;;;;5.40;4.63;;;7.10;1.00;;;;;;5335316;26;20313;-69
2024/04/16 01:12:07;;;;;;;5.28;4.78;;;7.10;1.00;;;;;;5348892;26;20533;-70
2024/04/16 01:14:35;;;;;;;5.40;4.47;;;7.10;1.00;;;;;;5346411;26;20310;-70
2024/04/16 01:17:01;;;;;;;5.10;4.27;;;7.20;1.00;;;;;;5348153;26;20672;-73
2024/04/16 01:19:30;;;;;;;4.40;4.00;;;7.30;1.00;;;;;;5345570;26;20955;-69
2024/04/16 01:21:58;;;;;;;6.90;5.13;;;7.40;1.00;;;;;;5336362;26;21013;-70
2024/04/16 01:24:29;;;;;;;5.88;5.22;;;7.30;1.00;;;;;;5347999;26;20505;-70
2024/04/16 01:26:56;;;;;;;5.55;4.25;;;7.30;1.00;;;;;;5345064;26;20267;-69
2024/04/16 01:29:25;;;;;;;5.25;4.75;;;7.30;1.00;;;;;;5344902;26;20296;-71
2024/04/16 01:31:51;;;;;;;5.57;5.07;;;7.20;1.00;;;;;;5344014;26;20309;-70
2024/04/16 01:34:19;;;;;;;5.00;4.20;;;7.20;1.00;;;;;;5346593;26;20499;-70
2024/04/16 01:36:45;;;;;;;5.78;3.95;;;7.20;1.00;;;;;;5347515;26;21408;-71
2024/04/16 01:39:14;;;;;;;5.53;5.00;;;7.20;1.00;;;;;;5347828;26;20266;-71
2024/04/16 01:41:42;;;;;;;6.03;4.93;;;7.30;1.00;;;;;;5347795;26;20543;-69
2024/04/16 01:44:11;;;;;;;5.70;4.53;;;7.30;1.00;;;;;;5329016;26;20292;-71
2024/04/16 01:46:37;;;;;;;7.30;4.67;;;7.40;1.00;;;;;;5353102;26;20687;-71
2024/04/16 01:49:06;;;;;;;5.53;4.20;;;7.50;1.00;;;;;;5349898;26;20560;-73
2024/04/16 01:51:32;;;;;;;6.95;4.40;;;7.50;1.00;;;;;;5335189;26;21379;-71
2024/04/16 01:54:01;;;;;;;4.97;4.03;;;7.60;1.00;;;;;;5342212;26;20269;-73
2024/04/16 01:56:27;;;;;;;7.43;5.50;;;7.60;1.00;;;;;;5349138;26;20614;-69
2024/04/16 01:58:58;;;;;;;6.93;4.30;;;7.60;1.00;;;;;;5350332;26;20493;-71
2024/04/16 02:01:24;;;;;;;4.50;4.10;;;7.60;1.00;;;;;;5328949;26;20536;-69
2024/04/16 02:03:53;;;;;;;4.75;4.20;;;7.50;1.00;;;;;;5352610;26;20262;-70
2024/04/16 02:06:18;;;;;;;5.78;3.88;;;7.50;1.00;;;;;;5333798;26;20293;-69
2024/04/16 02:08:47;;;;;;;3.63;3.33;;;7.40;1.00;;;;;;5319263;26;20305;-70
2024/04/16 02:11:13;;;;;;;4.60;4.00;;;7.40;1.00;;;;;;5348650;26;21379;-72
2024/04/16 02:13:41;;;;;;;4.73;3.63;;;7.40;1.00;;;;;;5326574;26;20729;-69
2024/04/16 02:16:10;;;;;;;5.40;4.10;;;7.40;1.00;;;;;;5317555;26;20485;-69
2024/04/16 02:18:39;;;;;;;4.40;4.00;;;7.40;1.00;;;;;;5313784;26;20265;-71
2024/04/16 02:21:04;;;;;;;5.47;4.57;;;7.40;1.00;;;;;;5344207;26;20304;-71
2024/04/16 02:23:33;;;;;;;5.20;4.70;;;7.40;1.00;;;;;;5325701;26;20529;-70
2024/04/16 02:25:59;;;;;;;4.55;3.60;;;7.40;1.00;;;;;;5315028;26;20541;-70
2024/04/16 02:28:27;;;;;;;8.33;4.33;;;7.30;1.00;;;;;;5331951;26;20273;-70
2024/04/16 02:30:53;;;;;;;5.60;4.80;;;7.30;1.00;;;;;;5347092;26;20499;-70
2024/04/16 02:33:25;;;;;;;5.67;4.03;;;7.30;1.00;;;;;;5348218;26;20759;-71
2024/04/16 02:35:51;;;;;;;4.23;3.83;;;7.30;1.00;;;;;;5349439;26;21079;-70
2024/04/16 02:38:19;;;;;;;7.83;3.93;;;7.30;1.00;;;;;;5347884;26;20481;-72
2024/04/16 02:40:45;;;;;;;7.78;4.60;;;7.20;1.00;;;;;;5345273;26;20496;-70
2024/04/16 02:43:14;;;;;;;5.30;4.40;;;7.20;1.00;;;;;;5324417;26;20707;-70
2024/04/16 02:45:40;;;;;;;5.65;4.35;;;7.10;1.00;;;;;;5339304;26;21401;-69
2024/04/16 02:48:08;;;;;;;4.97;4.30;;;7.10;1.00;;;;;;5350881;26;20269;-71
2024/04/16 02:50:37;;;;;;;5.70;4.22;;;7.10;1.00;;;;;;5351013;26;20495;-71
2024/04/16 02:53:06;;;;;;;6.53;4.45;;;7.00;1.00;;;;;;5347561;26;20265;-71
2024/04/16 02:55:34;;;;;;;6.10;3.92;;;7.00;1.00;;;;;;5348284;26;20262;-70
2024/04/16 02:58:03;;;;;;;8.10;5.05;;;6.90;1.00;;;;;;5348466;26;20279;-70
2024/04/16 03:00:30;;;;;;;7.25;3.83;;;6.90;1.00;;;;;;5315542;26;20323;-71
2024/04/16 03:02:58;;;;;;;6.15;4.25;;;6.80;1.00;;;;;;5316095;26;20297;-70
2024/04/16 03:05:24;;;;;;;3.63;3.33;;;6.80;1.00;;;;;;5319337;26;21232;-70
2024/04/16 03:07:56;;;;;;;5.03;3.57;;;6.70;1.00;;;;;;5320696;26;20295;-71
2024/04/16 03:10:21;;;;;;;4.82;4.25;;;6.60;1.00;;;;;;5314821;26;20561;-70
2024/04/16 03:12:54;;;;;;;3.90;3.50;;;6.60;1.00;;;;;;5338609;26;20253;-71
2024/04/16 03:15:20;;;;;;;6.10;3.70;;;6.60;1.00;;;;;;5344672;26;20523;-70
2024/04/16 03:17:48;;;;;;;4.10;3.60;;;6.60;1.00;;;;;;5344453;26;20262;-70
2024/04/16 03:20:14;;;;;;;4.43;3.58;;;6.60;1.00;;;;;;5328088;26;20540;-70
2024/04/16 03:22:43;;;;;;;3.85;3.03;;;6.60;1.00;;;;;;5330026;26;20265;-71
2024/04/16 03:25:12;;;;;;;3.78;3.45;;;6.60;1.00;;;;;;5345305;26;20315;-72
2024/04/16 03:27:41;;;;;;;3.58;3.28;;;6.60;1.00;;;;;;5344268;26;20264;-70
2024/04/16 03:30:08;;;;;;;3.88;3.58;;;6.60;1.00;;;;;;5331821;26;20283;-72
2024/04/16 03:32:36;;;;;;;3.45;3.13;;;6.60;1.00;;;;;;5340150;26;20275;-71
2024/04/16 03:35:03;;;;;;;3.95;3.58;;;6.50;1.00;;;;;;5349696;25;20256;-72
2024/04/16 03:37:31;;;;;;;3.75;3.15;;;6.50;1.00;;;;;;5342620;26;20749;-70
2024/04/16 03:40:00;;;;;;;4.55;3.20;;;6.50;1.00;;;;;;5327333;26;20820;-71
2024/04/16 03:42:29;;;;;;;3.97;3.40;;;6.50;1.00;;;;;;5348048;26;20784;-70
2024/04/16 03:44:57;;;;;;;7.53;4.70;;;6.50;1.00;;;;;;5353817;26;20264;-72
2024/04/16 03:47:23;;;;;;;6.93;3.10;;;6.50;1.00;;;;;;5349908;26;20303;-71
2024/04/16 03:49:52;;;;;;;4.83;3.17;;;6.50;1.00;;;;;;5333357;26;20310;-72
2024/04/16 03:52:18;;;;;;;6.60;3.65;;;6.40;1.00;;;;;;5333126;26;21448;-73
2024/04/16 03:54:46;;;;;;;3.20;2.17;;;6.40;1.00;;;;;;5351635;26;20290;-72
2024/04/16 03:57:12;;;;;;;5.47;3.05;;;6.40;1.00;;;;;;5329864;26;20473;-70
2024/04/16 04:02:24;;;;;;;5.60;3.80;;;6.50;1.00;;;;;;5325516;26;20275;-74
2024/04/16 04:04:53;;;;;;;5.82;3.58;;;6.50;1.00;;;;;;5311661;26;20308;-72
2024/04/16 04:07:19;;;;;;;6.93;3.80;;;6.60;1.00;;;;;;5330935;26;20336;-72
2024/04/16 04:09:49;;;;;;;2.95;2.75;;;6.60;1.00;;;;;;5311133;26;20274;-72
2024/04/16 04:12:15;;;;;;;5.68;2.55;;;6.60;1.00;;;;;;5308334;26;20358;-71
2024/04/16 04:14:46;;;;;;;3.50;3.20;;;6.60;1.00;;;;;;5315080;26;20331;-71
2024/04/16 04:17:12;;;;;;;5.20;2.88;;;6.70;1.00;;;;;;5311043;26;20301;-72
2024/04/16 04:19:41;;;;;;;4.60;2.93;;;6.60;1.00;;;;;;5311354;26;20310;-72
2024/04/16 04:22:07;;;;;;;2.70;2.50;;;6.60;1.00;;;;;;5319843;26;20939;-72
2024/04/16 04:24:36;;;;;;;4.45;2.85;;;6.60;1.00;;;;;;5312051;26;20317;-71
2024/04/16 04:27:03;;;;;;;4.13;3.00;;;6.60;1.00;;;;;;5314156;26;20266;-71
2024/04/16 04:29:33;;;;;;;5.35;2.90;;;6.60;1.00;;;;;;5313726;26;20771;-71
2024/04/16 04:32:03;;;;;;;5.35;2.90;;;6.60;1.00;;;;;;5321228;26;21002;-71
2024/04/16 04:34:31;;;;;;;3.38;2.80;;;6.60;1.00;;;;;;5330379;26;20724;-72
2024/04/16 04:36:57;;;;;;;3.90;3.03;;;6.60;1.00;;;;;;5352772;26;20289;-73
2024/04/16 04:39:26;;;;;;;3.77;3.30;;;6.60;1.00;;;;;;5322137;26;20278;-73
2024/04/16 04:41:52;;;;;;;5.10;3.55;;;6.50;1.00;;;;;;5314075;26;20566;-71
2024/04/16 04:44:20;;;;;;;5.35;2.90;;;6.50;1.00;;;;;;5306360;26;20319;-71
2024/04/16 04:46:46;;;;;;;4.60;3.55;;;6.50;1.00;;;;;;5339620;26;21145;-73
2024/04/16 04:49:17;;;;;;;3.70;3.40;;;6.60;1.00;;;;;;5348333;26;20304;-71
2024/04/16 04:51:44;;;;;;;3.88;2.90;;;6.60;1.00;;;;;;5346821;26;20487;-72
2024/04/16 04:54:12;;;;;;;4.15;3.15;;;6.70;1.00;;;;;;5329365;26;20262;-72
2024/04/16 04:56:38;;;;;;;3.33;2.85;;;6.70;1.00;;;;;;5344078;26;20280;-72
2024/04/16 04:59:07;;;;;;;4.83;3.10;;;6.70;1.00;;;;;;5345396;26;20273;-72
2024/04/16 05:01:33;;;;;;;3.85;3.30;;;6.80;1.00;;;;;;5346547;26;21074;-73
2024/04/16 05:04:01;;;;;;;3.90;3.30;;;6.80;1.00;;;;;;5343967;26;20364;-72
2024/04/16 05:06:30;;;;;;;3.97;3.05;;;7.00;1.00;;;;;;5332320;26;20532;-74
2024/04/16 05:08:59;;;;;;;3.35;2.88;;;7.00;1.00;;;;;;5345895;26;20769;-72
2024/04/16 05:11:25;;;;;;;5.18;3.40;;;7.10;1.00;;;;;;5334040;26;20389;-73
2024/04/16 05:13:54;;;;;;;3.40;3.00;;;7.10;1.00;;;;;;5335870;26;20275;-74
2024/04/16 05:16:21;;;;;;;4.38;3.45;;;6.90;1.00;;;;;;5306835;26;20271;-75
2024/04/16 05:18:50;;;;;;;5.50;4.57;;;6.70;1.00;;;;;;5312912;26;20281;-74
2024/04/16 05:21:16;;;;;;;3.90;3.60;;;6.50;1.00;;;;;;5317385;26;20271;-73
2024/04/16 05:23:48;;;;;;;5.20;4.70;;;6.40;1.00;;;;;;5309052;26;20270;-74
2024/04/16 05:26:14;;;;;;;7.88;3.85;;;6.30;1.00;;;;;;5311974;26;20493;-72
2024/04/16 05:28:44;;;;;;;4.57;4.10;;;6.40;1.00;;;;;;5312868;26;20272;-74
2024/04/16 05:31:10;;;;;;;6.90;3.90;;;6.40;1.00;;;;;;5316784;26;21215;-72
2024/04/16 05:33:39;;;;;;;5.70;4.70;;;6.40;1.00;;;;;;5312637;26;20363;-73
2024/04/16 05:36:05;;;;;;;4.95;4.47;;;6.40;1.00;;;;;;5306696;26;20294;-73
2024/04/16 05:38:34;;;;;;;5.35;4.07;;;6.40;1.00;;;;;;5318691;26;21118;-72
2024/04/16 05:41:03;;;;;;;7.68;4.35;;;6.40;1.00;;;;;;5322712;26;20268;-73
2024/04/16 05:43:32;;;;;;;7.10;5.50;;;6.40;1.00;;;;;;5304174;26;20353;-74
2024/04/16 05:45:58;;;;;;;5.38;4.68;;;6.60;1.00;;;;;;5361390;26;20365;-73
2024/04/16 05:48:27;;;;;;;5.57;5.07;;;6.60;1.00;;;;;;5312064;26;20679;-73
2024/04/16 05:50:54;;;;;;;5.15;4.60;;;6.60;1.00;;;;;;5306771;26;20494;-74
2024/04/16 05:53:23;;;;;;;5.38;4.85;;;6.60;1.00;;;;;;5338467;26;20770;-72
2024/04/16 05:55:50;;;;;;;6.23;4.77;;;6.70;1.00;;;;;;5338966;26;20405;-73
2024/04/16 05:58:24;;;;;;;5.10;4.70;;;6.80;1.00;;;;;;5350447;26;20518;-71
2024/04/16 06:00:50;;;;;;;6.37;4.70;;;7.00;1.00;;;;;;5346047;26;20500;-73
2024/04/16 06:03:18;;;;;;;4.80;4.07;;;7.10;1.00;;;;;;5342665;26;20634;-72
2024/04/16 06:05:45;;;;;;;6.65;4.82;;;6.90;1.00;;;;;;5340704;26;21348;-74
2024/04/16 06:08:13;;;;;;;6.35;4.80;;;6.80;1.00;;;;;;5342506;26;20706;-73
2024/04/16 06:10:42;;;;;;;5.43;4.50;;;6.70;1.00;;;;;;5337949;26;20408;-71
2024/04/16 06:13:11;;;;;;;5.35;4.65;;;6.60;1.00;;;;;;5344036;26;20263;-71
2024/04/16 06:15:39;;;;;;;4.97;3.90;;;6.60;1.00;;;;;;5338828;26;20255;-75
2024/04/16 06:18:10;;;;;;;4.82;4.30;;;6.50;1.00;;;;;;5344891;26;20384;-74
2024/04/16 06:20:37;;;;;;;5.75;4.85;;;6.50;1.00;;;;;;5348201;26;20328;-75
2024/04/16 06:23:06;;;;;;;7.70;4.80;;;6.50;1.00;;;;;;5345951;26;20321;-73
2024/04/16 06:25:32;;;;;;;6.90;5.07;;;6.60;1.00;;;;;;5345558;26;20533;-73
2024/04/16 06:28:00;;;;;;;4.67;4.23;;;6.50;1.00;;;;;;5324612;26;20269;-73
2024/04/16 06:30:26;;;;;;;6.60;4.97;;;6.60;1.00;;;;;;5328638;26;20532;-73
2024/04/16 06:32:58;;;;;;;5.63;4.67;;;6.60;1.00;;;;;;5344528;26;20257;-74
2024/04/16 06:35:23;;;;;;;6.18;4.43;;;6.60;1.00;;;;;;5307406;26;20631;-75
2024/04/16 06:37:52;;;;;;;4.60;4.20;;;6.60;1.00;;;;;;5310507;26;20844;-72
2024/04/16 06:40:18;;;;;;;4.38;3.97;;;6.60;1.00;;;;;;5320296;26;20528;-75
2024/04/16 06:42:46;;;;;;;5.13;4.63;;;6.60;1.00;;;;;;5345011;25;20292;-72
2024/04/16 06:45:12;;;;;;;5.32;4.80;;;6.60;1.00;;;;;;5323136;26;20489;-73
2024/04/16 06:47:41;;;;;;;6.30;5.10;;;6.50;1.00;;;;;;5338715;26;20305;-73
2024/04/16 06:50:10;;;;;;;5.70;4.80;;;6.60;1.00;;;;;;5340646;26;20474;-72
2024/04/16 06:52:38;;;;;;;10.55;4.90;;;6.80;1.00;;;;;;5330869;26;20367;-74
2024/04/16 06:55:05;;;;;;;7.05;5.53;;;6.80;1.00;;;;;;5337426;26;20301;-76
2024/04/16 06:57:33;;;;;;;6.20;5.38;;;6.70;1.00;;;;;;5338238;26;21138;-75
2024/04/16 06:59:59;;;;;;;8.18;4.82;;;6.60;1.00;;;;;;5340812;26;20317;-71
2024/04/16 07:02:29;;;;;;;7.18;5.65;;;6.60;1.00;;;;;;5345069;26;20266;-72
2024/04/16 07:04:55;;;;;;;7.15;5.07;;;6.50;1.00;;;;;;5338669;26;20382;-70
2024/04/16 07:07:29;;;;;;;5.35;4.85;;;6.50;1.00;;;;;;5334693;26;20339;-73
2024/04/16 07:09:55;;;;;;;7.65;5.40;;;6.50;1.00;;;;;;5318449;26;20261;-71
2024/04/16 07:12:25;;;;;;;8.37;6.00;;;6.50;1.00;;;;;;5311336;26;20295;-71
2024/04/16 07:14:51;;;;;;;9.38;6.00;;;6.50;1.00;;;;;;5338398;26;21537;-71
2024/04/16 07:17:20;;;;;;;6.10;5.50;;;6.60;1.00;;;;;;5324176;26;20282;-71
2024/04/16 07:19:48;;;;;;;9.07;6.30;;;6.60;1.00;;;;;;5311887;26;20639;-74
2024/04/16 07:22:16;;;;;;;7.68;6.18;;;6.60;1.00;;;;;;5308807;26;20261;-70
2024/04/16 07:24:45;;;;;;;8.40;7.03;;;6.70;1.00;;;;;;5342281;26;20273;-71
2024/04/16 07:27:13;;;;;;;10.48;5.93;;;6.80;1.00;;;;;;5341826;26;21255;-70
2024/04/16 07:29:39;;;;;;;8.05;6.55;;;6.90;1.00;;;;;;5335153;26;20267;-71
2024/04/16 07:32:08;;;;;;;8.40;7.45;;;6.90;1.00;;;;;;5353349;26;20301;-72
2024/04/16 07:34:34;;;;;;;9.13;7.63;;;6.90;1.00;;;;;;5343469;26;21122;-72
2024/04/16 07:37:03;;;;;;;8.60;6.80;;;6.90;1.00;;;;;;5343962;26;20296;-70
2024/04/16 07:39:29;;;;;;;8.52;7.10;;;6.90;1.00;;;;;;5349716;26;20500;-71
2024/04/16 07:42:00;;;;;;;12.10;7.63;;;6.90;1.00;;;;;;5343448;26;20731;-74
2024/04/16 07:44:26;;;;;;;9.77;6.03;;;7.00;1.00;;;;;;5344814;25;20507;-73
2024/04/16 07:46:55;;;;;;;11.43;7.30;;;7.00;1.00;;;;;;5347599;26;20609;-74
2024/04/16 07:49:21;;;;;;;8.75;6.70;;;7.10;1.00;;;;;;5349758;26;20679;-71
2024/04/16 07:51:50;;;;;;;7.77;6.57;;;7.10;1.00;;;;;;5343115;26;20932;-71
2024/04/16 07:54:16;;;;;;;9.32;6.57;;;7.20;1.00;;;;;;5346739;26;20492;-74
2024/04/16 07:56:44;;;;;;;7.20;6.10;;;7.20;1.00;;;;;;5348019;26;21345;-70
2024/04/16 07:59:13;;;;;;;7.90;6.30;;;7.20;1.00;;;;;;5345405;25;20997;-70
2024/04/16 08:01:42;;;;;;;9.05;6.00;;;7.20;1.00;;;;;;5351981;25;20542;-71
2024/04/16 08:04:08;;;;;;;6.50;5.60;;;7.30;1.00;;;;;;5317080;26;20271;-71
2024/04/16 08:06:36;;;;;;;6.70;5.70;;;7.30;1.00;;;;;;5313972;26;20500;-71
2024/04/16 08:09:02;;;;;;;8.70;7.22;;;7.20;1.00;;;;;;5308509;26;21324;-75
2024/04/16 08:11:31;;;;;;;6.57;5.07;;;7.20;1.00;;;;;;5312849;26;20350;-72
2024/04/16 08:13:57;;;;;;;8.32;6.05;;;7.30;1.00;;;;;;5313069;26;20484;-69
2024/04/16 08:16:29;;;;;;;8.83;7.03;;;7.20;1.00;;;;;;5310690;26;20323;-70
2024/04/16 08:18:55;;;;;;;9.93;5.53;;;7.10;1.00;;;;;;5315449;26;20494;-72
2024/04/16 08:21:25;;;;;;;5.78;5.18;;;7.00;1.00;;;;;;5311117;26;20269;-70
2024/04/16 08:23:52;;;;;;;5.88;5.25;;;7.10;1.00;;;;;;5309026;26;20349;-70
2024/04/16 08:26:20;;;;;;;6.28;5.68;;;7.10;1.00;;;;;;5308651;26;20308;-71
2024/04/16 08:28:48;;;;;;;6.40;5.20;;;7.10;1.00;;;;;;5317048;26;20267;-70
2024/04/16 08:31:17;;;;;;;5.50;5.00;;;7.10;1.00;;;;;;5315781;26;20268;-71
2024/04/16 08:33:45;;;;;;;5.93;5.43;;;7.00;1.00;;;;;;5365535;26;20251;-70
2024/04/16 08:36:16;;;;;;;6.30;5.68;;;6.90;1.00;;;;;;5316187;26;20770;-70
2024/04/16 08:38:42;;;;;;;6.00;5.00;;;6.80;1.00;;;;;;5309483;26;20332;-69
2024/04/16 08:41:11;;;;;;;8.07;7.27;;;6.80;1.00;;;;;;5312151;26;20277;-69
2024/04/16 08:43:39;;;;;;;8.57;7.13;;;6.80;1.00;;;;;;5313490;26;20561;-70
2024/04/16 08:46:09;;;;;;;7.57;6.07;;;6.80;1.00;;;;;;5317353;26;20679;-70
2024/04/16 08:48:37;;;;;;;7.43;5.53;;;6.80;1.00;;;;;;5312814;26;20265;-71
2024/04/16 08:51:10;;;;;;;6.82;6.00;;;6.80;1.00;;;;;;5312235;26;20266;-70
2024/04/16 08:53:40;;;;;;;12.63;6.25;;;6.80;1.00;;;;;;5309762;26;20324;-70
2024/04/16 08:56:11;;;;;;;7.35;6.35;;;6.90;1.00;;;;;;5317189;26;20306;-72
2024/04/16 08:58:37;;;;;;;6.75;5.68;;;7.00;1.00;;;;;;5310479;26;20324;-76
2024/04/16 09:01:08;;;;;;;9.68;6.90;;;7.00;1.00;;;;;;5313956;26;21216;-71
2024/04/16 09:03:35;;;;;;;8.35;6.20;;;7.20;1.00;;;;;;5310592;26;20281;-71
2024/04/16 09:06:05;;;;;;;8.02;6.93;;;7.20;1.00;;;;;;5306269;26;20780;-70
2024/04/16 09:08:35;;;;;;;7.00;5.73;;;7.20;1.00;;;;;;5311456;26;20291;-71
2024/04/16 09:11:04;;;;;;;8.50;5.87;;;7.30;1.00;;;;;;5311843;26;20994;-71
2024/04/16 09:13:30;;;;;;;8.75;6.10;;;7.30;1.00;;;;;;5314356;26;20550;-72
2024/04/16 09:16:00;;;;;;;7.50;6.70;;;7.30;1.00;;;;;;5345303;26;20329;-72
2024/04/16 09:18:26;;;;;;;6.03;5.43;;;7.40;1.00;;;;;;5342768;26;20503;-69
2024/04/16 09:20:57;;;;;;;9.57;6.23;;;7.70;1.00;;;;;;5349073;26;20862;-69
2024/04/16 09:23:23;;;;;;;10.07;6.43;;;8.00;1.00;;;;;;5345520;26;20559;-69
2024/04/16 09:25:56;;;;;;;12.20;6.87;;;8.20;1.00;;;;;;5345264;26;20304;-70
2024/04/16 09:28:22;;;;;;;8.80;5.73;;;8.40;1.00;;;;;;5346526;26;20498;-70
2024/04/16 09:30:57;;;;;;;7.60;6.10;;;8.50;1.00;;;;;;5345342;26;20930;-69
2024/04/16 09:33:23;;;;;;;10.67;5.77;;;8.70;1.00;;;;;;5333419;26;20554;-71
2024/04/16 09:35:52;;;;;;;9.97;6.87;;;8.70;1.00;;;;;;5344660;26;20866;-71
2024/04/16 09:38:18;;;;;;;6.40;4.80;;;8.80;1.00;;;;;;5328690;26;20545;-71
2024/04/16 09:40:48;;;;;;;6.30;5.07;;;8.70;1.00;;;;;;5325661;26;20564;-71
2024/04/16 09:43:18;;;;;;;6.23;4.63;;;8.50;1.00;;;;;;5343223;26;20991;-71
2024/04/16 09:45:50;;;;;;;14.53;4.83;;;8.50;1.00;;;;;;5335866;26;21059;-72
2024/04/16 09:48:18;;;;;;;9.47;4.20;;;8.40;1.00;;;;;;5342877;26;20491;-72
2024/04/16 09:50:48;;;;;;;5.93;5.23;;;8.40;1.00;;;;;;5344721;26;20483;-73
2024/04/16 09:53:18;;;;;;;6.43;4.17;;;8.60;1.00;;;;;;5350803;26;20545;-72
2024/04/16 09:55:49;;;;;;;10.10;4.93;;;8.60;1.00;;;;;;5322221;26;20499;-70
2024/04/16 09:58:18;;;;;;;5.27;4.03;;;8.60;1.00;;;;;;5315793;26;20540;-72
2024/04/16 10:00:47;;;;;;;7.20;4.30;;;8.90;1.00;;;;;;5346225;26;20540;-72
2024/04/16 10:03:15;;;;;;;4.63;3.80;;;8.90;1.00;;;;;;5343923;26;20500;-72
2024/04/16 10:05:44;;;;;;;8.50;4.67;;;8.90;1.00;;;;;;5346021;26;21098;-71
2024/04/16 10:08:10;;;;;;;3.20;2.83;;;8.90;1.00;;;;;;5372733;26;20479;-72
2024/04/16 10:10:39;;;;;;;7.17;3.90;;;8.90;1.00;;;;;;5377281;26;20675;-72
2024/04/16 10:13:05;;;;;;;4.40;2.60;;;9.50;1.00;;;;;;5318958;26;20539;-73
2024/04/16 10:15:37;;;;;;;6.13;2.73;;;10.50;1.00;;;;;;5349253;26;20566;-72
2024/04/16 10:18:03;;;;;;;3.80;2.83;;;11.80;1.00;;;;;;5347835;26;20526;-73
2024/04/16 10:20:32;;;;;;;3.80;2.93;;;12.60;1.00;;;;;;5333441;26;20490;-75
2024/04/16 10:23:00;;;;;;;3.63;2.63;;;13.60;1.00;;;;;;5307929;26;20487;-74
2024/04/16 10:25:33;;;;;;;4.80;2.90;;;14.70;1.00;;;;;;5309606;26;20495;-77
2024/04/16 10:28:00;;;;;;;6.03;2.57;;;14.60;1.00;;;;;;5319307;26;20543;-77
2024/04/16 10:30:33;;;;;;;4.40;3.17;;;14.10;1.00;;;;;;5310746;26;20538;-77
2024/04/16 10:33:04;;;;;;;5.80;3.10;;;13.70;1.00;;;;;;5330912;26;20839;-78
2024/04/16 10:35:35;;;;;;;4.50;2.70;;;13.50;1.00;;;;;;5347258;26;21120;-77
2024/04/16 10:38:01;;;;;;;4.90;2.40;;;13.30;1.00;;;;;;5344776;26;20492;-76
2024/04/16 10:40:31;;;;;;;5.63;2.53;;;13.00;1.00;;;;;;5346531;26;21433;-76
2024/04/16 10:43:00;;;;;;;5.13;2.60;;;12.80;1.00;;;;;;5351324;26;20484;-76
2024/04/16 10:45:31;;;;;;;3.33;2.47;;;12.30;1.00;;;;;;5346571;26;20611;-77
2024/04/16 10:47:58;;;;;;;5.70;2.40;;;12.10;1.00;;;;;;5343702;26;20495;-78
2024/04/16 10:50:29;;;;;;;4.33;3.07;;;12.00;1.00;;;;;;5352237;26;20493;-76
2024/04/16 10:52:55;;;;;;;8.07;3.47;;;12.20;1.00;;;;;;5334687;26;20545;-75
2024/04/16 10:55:25;;;;;;;6.00;2.40;;;13.00;1.00;;;;;;5346408;26;20480;-74
2024/04/16 10:57:51;;;;;;;2.97;2.37;;;13.90;1.00;;;;;;5345025;26;20492;-81
2024/04/16 11:00:20;;;;;;;3.67;1.90;;;14.10;1.00;;;;;;5327092;26;20497;-74
2024/04/16 11:02:46;;;;;;;3.47;2.20;;;13.90;1.00;;;;;;5332944;26;20849;-75
2024/04/16 11:05:19;;;;;;;3.10;2.47;;;13.70;1.00;;;;;;5345952;26;20484;-74
2024/04/16 11:07:49;;;;;;;2.90;2.13;;;13.80;1.00;;;;;;5348402;26;21056;-73
2024/04/16 11:10:17;;;;;;;3.70;2.50;;;14.80;1.00;;;;;;5340924;26;20549;-77
2024/04/16 11:12:44;;;;;;;3.93;2.43;;;15.10;1.00;;;;;;5327396;26;20624;-74
2024/04/16 11:15:12;;;;;;;3.40;2.00;;;14.60;1.00;;;;;;5341411;26;21169;-73
2024/04/16 11:17:39;;;;;;;4.00;2.63;;;13.30;1.00;;;;;;5347586;26;20495;-74
2024/04/16 11:20:09;;;;;;;3.27;2.00;;;11.80;1.00;;;;;;5342594;26;21360;-76
2024/04/16 11:22:37;;;;;;;2.80;2.47;;;10.90;1.00;;;;;;5352551;26;20546;-75
2024/04/16 11:25:18;;;;;;;4.90;2.60;;;10.30;1.00;;;;;;5348171;26;21010;-73
2024/04/16 11:27:44;;;;;;;2.67;2.10;;;9.90;1.00;;;;;;5337119;26;20480;-73
2024/04/16 11:30:13;;;;;;;2.83;2.57;;;9.70;1.00;;;;;;5346865;26;21393;-74
2024/04/16 11:32:41;;;;;;;2.80;2.37;;;9.80;1.00;;;;;;5336997;26;20493;-73
2024/04/16 11:35:10;;;;;;;8.10;2.90;;;9.90;1.00;;;;;;5348105;26;20486;-73
2024/04/16 11:37:36;;;;;;;5.40;3.13;;;9.90;1.00;;;;;;5347578;26;20539;-73
2024/04/16 11:40:06;;;;;;;3.87;2.60;;;10.10;1.00;;;;;;5318899;26;20492;-74
2024/04/16 11:42:35;;;;;;;3.30;2.37;;;10.70;1.00;;;;;;5326408;26;20506;-74
2024/04/16 11:45:05;;;;;;;3.20;2.20;;;11.50;1.00;;;;;;5343955;26;20490;-73
2024/04/16 11:47:31;;;;;;;5.77;3.23;;;12.40;1.00;;;;;;5345377;26;20546;-73
2024/04/16 11:50:02;;;;;;;4.20;2.17;;;13.00;1.00;;;;;;5343465;26;20602;-73
2024/04/16 11:52:28;;;;;;;3.47;2.10;;;13.20;1.00;;;;;;5346601;26;20582;-72
2024/04/16 11:54:56;;;;;;;4.23;2.10;;;14.20;1.00;;;;;;5345735;26;20497;-73
2024/04/16 11:57:22;;;;;;;3.23;2.00;;;15.10;1.00;;;;;;5342864;26;20517;-75
2024/04/16 11:59:56;;;;;;;3.90;2.20;;;15.40;1.00;;;;;;5345398;26;20494;-73
2024/04/16 12:02:22;;;;;;;6.43;2.70;;;15.70;1.00;;;;;;5342177;26;20556;-73
2024/04/16 12:04:50;;;;;;;3.70;2.13;;;16.30;1.00;;;;;;5349450;26;20490;-74
2024/04/16 12:07:16;;;;;;;3.20;2.50;;;16.80;1.00;;;;;;5346901;26;20465;-76
2024/04/16 12:09:45;;;;;;;3.00;1.83;;;17.10;1.00;;;;;;5347446;26;20893;-74
2024/04/16 12:12:11;;;;;;;3.57;1.83;;;17.10;1.00;;;;;;5342984;26;20573;-74
2024/04/16 12:14:41;;;;;;;4.90;2.50;;;16.30;1.00;;;;;;5331806;26;20544;-74
2024/04/16 12:17:10;;;;;;;3.20;2.00;;;15.60;1.00;;;;;;5317110;26;20587;-74
2024/04/16 12:19:40;;;;;;;6.33;2.77;;;15.40;1.00;;;;;;5310123;26;20996;-74
2024/04/16 12:22:06;;;;;;;5.90;2.93;;;15.30;1.00;;;;;;5313182;26;20648;-75
2024/04/16 12:24:35;;;;;;;3.90;2.50;;;14.80;1.00;;;;;;5347653;26;20475;-75
2024/04/16 12:27:01;;;;;;;4.07;1.80;;;14.20;1.00;;;;;;5348748;26;20581;-74
2024/04/16 12:29:29;;;;;;;1.90;1.77;;;13.90;1.00;;;;;;5340613;26;20495;-73
2024/04/16 12:31:55;;;;;;;4.33;1.90;;;13.50;1.00;;;;;;5347732;26;21066;-74
2024/04/16 12:34:27;;;;;;;2.40;2.20;;;12.90;1.00;;;;;;5342249;26;20496;-73
2024/04/16 12:36:53;;;;;;;5.43;2.03;;;12.10;1.00;;;;;;5308855;26;20537;-73
2024/04/16 12:39:21;;;;;;;3.43;2.10;;;11.50;1.00;;;;;;5310023;26;20469;-73
2024/04/16 12:41:48;;;;;;;3.93;2.20;;;10.90;1.00;;;;;;5316348;26;22545;-74
2024/04/16 12:44:18;;;;;;;2.73;2.30;;;10.50;1.00;;;;;;5312056;26;20540;-74
2024/04/16 12:46:44;;;;;;;2.93;2.23;;;10.30;1.00;;;;;;5318465;26;20478;-74
2024/04/16 12:49:12;;;;;;;2.63;2.23;;;10.10;1.00;;;;;;5317052;26;21495;-74
2024/04/16 12:51:41;;;;;;;2.27;2.07;;;10.00;1.00;;;;;;5311679;26;20486;-75
2024/04/16 12:54:09;;;;;;;4.27;2.63;;;9.80;1.00;;;;;;5312190;26;20628;-74
2024/04/16 12:56:35;;;;;;;3.67;2.17;;;9.80;1.00;;;;;;5344654;26;20484;-75
2024/04/16 12:59:04;;;;;;;2.40;2.17;;;10.00;1.00;;;;;;5353020;25;20565;-76
2024/04/16 13:01:30;;;;;;;2.27;1.90;;;10.20;1.00;;;;;;5347230;26;20643;-74
2024/04/16 13:03:59;;;;;;;2.90;2.43;;;10.30;1.00;;;;;;5349444;26;20487;-76
2024/04/16 13:06:25;;;;;;;3.10;2.17;;;10.50;1.00;;;;;;5348400;26;20551;-75
2024/04/16 13:08:56;;;;;;;6.67;2.40;;;10.70;1.00;;;;;;5350830;26;21017;-74
2024/04/16 13:11:23;;;;;;;3.30;3.00;;;11.10;1.00;;;;;;5340697;26;21260;-74